sensor_id;sensor_type;location;lat;lon;timestamp;P1;durP1;ratioP1;P2;durP2;ratioP2
7375;SDS011;3728;42.266;24.944;2023-04-01T00:01:13;16.13;;;8.13;;
7375;SDS011;3728;42.266;24.944;2023-04-01T00:03:41;11.87;;;6.97;;
7375;SDS011;3728;42.266;24.944;2023-04-01T00:06:13;12.30;;;6.80;;
7375;SDS011;3728;42.266;24.944;2023-04-01T00:08:44;10.17;;;6.10;;
7375;SDS011;3728;42.266;24.944;2023-04-01T00:11:13;9.43;;;6.30;;
7375;SDS011;3728;42.266;24.944;2023-04-01T00:13:41;10.07;;;6.23;;
7375;SDS011;3728;42.266;24.944;2023-04-01T00:16:11;13.33;;;7.27;;
7375;SDS011;3728;42.266;24.944;2023-04-01T00:18:47;11.70;;;8.60;;
7375;SDS011;3728;42.266;24.944;2023-04-01T00:21:16;11.07;;;7.13;;
7375;SDS011;3728;42.266;24.944;2023-04-01T00:23:46;11.43;;;6.47;;
7375;SDS011;3728;42.266;24.944;2023-04-01T00:26:14;9.40;;;6.17;;
7375;SDS011;3728;42.266;24.944;2023-04-01T00:28:45;9.70;;;6.40;;
7375;SDS011;3728;42.266;24.944;2023-04-01T00:31:14;10.20;;;5.90;;
7375;SDS011;3728;42.266;24.944;2023-04-01T00:33:42;9.77;;;6.27;;
7375;SDS011;3728;42.266;24.944;2023-04-01T00:36:10;9.63;;;6.30;;
7375;SDS011;3728;42.266;24.944;2023-04-01T00:38:38;10.07;;;6.13;;
7375;SDS011;3728;42.266;24.944;2023-04-01T00:41:08;8.83;;;6.37;;
7375;SDS011;3728;42.266;24.944;2023-04-01T00:43:41;13.93;;;8.00;;
7375;SDS011;3728;42.266;24.944;2023-04-01T00:46:12;12.67;;;8.73;;
7375;SDS011;3728;42.266;24.944;2023-04-01T00:48:44;34.63;;;17.23;;
7375;SDS011;3728;42.266;24.944;2023-04-01T00:51:17;32.63;;;17.87;;
7375;SDS011;3728;42.266;24.944;2023-04-01T00:53:51;12.03;;;8.67;;
7375;SDS011;3728;42.266;24.944;2023-04-01T00:56:30;15.77;;;9.90;;
7375;SDS011;3728;42.266;24.944;2023-04-01T00:59:06;14.50;;;8.13;;
7375;SDS011;3728;42.266;24.944;2023-04-01T01:01:43;12.43;;;8.10;;
7375;SDS011;3728;42.266;24.944;2023-04-01T01:04:25;14.13;;;8.27;;
7375;SDS011;3728;42.266;24.944;2023-04-01T01:16:16;18.67;;;13.20;;
7375;SDS011;3728;42.266;24.944;2023-04-01T01:18:57;14.47;;;8.40;;
7375;SDS011;3728;42.266;24.944;2023-04-01T01:24:51;11.83;;;8.53;;
7375;SDS011;3728;42.266;24.944;2023-04-01T01:27:54;13.57;;;8.90;;
7375;SDS011;3728;42.266;24.944;2023-04-01T01:30:55;14.70;;;9.43;;
7375;SDS011;3728;42.266;24.944;2023-04-01T01:33:59;13.90;;;9.07;;
7375;SDS011;3728;42.266;24.944;2023-04-01T01:36:50;15.37;;;8.57;;
7375;SDS011;3728;42.266;24.944;2023-04-01T01:39:25;13.17;;;8.40;;
7375;SDS011;3728;42.266;24.944;2023-04-01T01:42:11;14.83;;;7.93;;
7375;SDS011;3728;42.266;24.944;2023-04-01T01:44:43;11.80;;;7.53;;
7375;SDS011;3728;42.266;24.944;2023-04-01T01:47:12;10.37;;;6.90;;
7375;SDS011;3728;42.266;24.944;2023-04-01T01:49:41;9.20;;;6.90;;
7375;SDS011;3728;42.266;24.944;2023-04-01T01:52:12;9.90;;;6.40;;
7375;SDS011;3728;42.266;24.944;2023-04-01T01:54:50;9.87;;;6.87;;
7375;SDS011;3728;42.266;24.944;2023-04-01T01:57:33;13.73;;;7.00;;
7375;SDS011;3728;42.266;24.944;2023-04-01T02:00:07;11.83;;;6.33;;
7375;SDS011;3728;42.266;24.944;2023-04-01T02:02:42;11.20;;;6.93;;
7375;SDS011;3728;42.266;24.944;2023-04-01T02:05:23;12.47;;;7.17;;
7375;SDS011;3728;42.266;24.944;2023-04-01T02:08:07;9.67;;;6.30;;
7375;SDS011;3728;42.266;24.944;2023-04-01T02:11:01;10.33;;;6.50;;
7375;SDS011;3728;42.266;24.944;2023-04-01T02:14:01;8.87;;;6.23;;
7375;SDS011;3728;42.266;24.944;2023-04-01T02:16:38;12.47;;;6.53;;
7375;SDS011;3728;42.266;24.944;2023-04-01T02:19:41;11.40;;;6.83;;
7375;SDS011;3728;42.266;24.944;2023-04-01T02:22:41;12.73;;;7.50;;
7375;SDS011;3728;42.266;24.944;2023-04-01T02:25:26;12.47;;;6.70;;
7375;SDS011;3728;42.266;24.944;2023-04-01T02:28:00;8.23;;;6.30;;
7375;SDS011;3728;42.266;24.944;2023-04-01T02:30:33;13.20;;;7.03;;
7375;SDS011;3728;42.266;24.944;2023-04-01T02:33:07;10.37;;;6.83;;
7375;SDS011;3728;42.266;24.944;2023-04-01T02:35:36;12.93;;;7.13;;
7375;SDS011;3728;42.266;24.944;2023-04-01T02:38:06;18.93;;;9.10;;
7375;SDS011;3728;42.266;24.944;2023-04-01T02:40:44;17.80;;;9.63;;
7375;SDS011;3728;42.266;24.944;2023-04-01T02:43:18;17.03;;;8.60;;
7375;SDS011;3728;42.266;24.944;2023-04-01T02:45:47;12.10;;;8.63;;
7375;SDS011;3728;42.266;24.944;2023-04-01T02:48:14;15.83;;;8.93;;
7375;SDS011;3728;42.266;24.944;2023-04-01T02:50:42;13.43;;;7.30;;
7375;SDS011;3728;42.266;24.944;2023-04-01T02:53:10;11.50;;;7.27;;
7375;SDS011;3728;42.266;24.944;2023-04-01T02:55:38;9.17;;;6.43;;
7375;SDS011;3728;42.266;24.944;2023-04-01T02:58:05;15.67;;;6.27;;
7375;SDS011;3728;42.266;24.944;2023-04-01T03:00:33;11.07;;;6.37;;
7375;SDS011;3728;42.266;24.944;2023-04-01T03:03:01;13.60;;;6.63;;
7375;SDS011;3728;42.266;24.944;2023-04-01T03:05:29;9.93;;;6.43;;
7375;SDS011;3728;42.266;24.944;2023-04-01T03:07:57;11.00;;;6.53;;
7375;SDS011;3728;42.266;24.944;2023-04-01T03:10:25;8.03;;;6.23;;
7375;SDS011;3728;42.266;24.944;2023-04-01T03:12:52;10.63;;;6.63;;
7375;SDS011;3728;42.266;24.944;2023-04-01T03:15:20;15.53;;;9.93;;
7375;SDS011;3728;42.266;24.944;2023-04-01T03:17:48;17.37;;;10.70;;
7375;SDS011;3728;42.266;24.944;2023-04-01T03:20:15;19.53;;;12.00;;
7375;SDS011;3728;42.266;24.944;2023-04-01T03:22:43;15.93;;;10.57;;
7375;SDS011;3728;42.266;24.944;2023-04-01T03:25:12;17.17;;;10.57;;
7375;SDS011;3728;42.266;24.944;2023-04-01T03:27:39;25.57;;;21.57;;
7375;SDS011;3728;42.266;24.944;2023-04-01T03:30:08;15.63;;;9.93;;
7375;SDS011;3728;42.266;24.944;2023-04-01T03:32:44;17.17;;;9.93;;
7375;SDS011;3728;42.266;24.944;2023-04-01T03:35:12;16.60;;;9.63;;
7375;SDS011;3728;42.266;24.944;2023-04-01T03:37:40;15.67;;;10.43;;
7375;SDS011;3728;42.266;24.944;2023-04-01T03:40:07;15.73;;;9.83;;
7375;SDS011;3728;42.266;24.944;2023-04-01T03:42:36;16.03;;;9.77;;
7375;SDS011;3728;42.266;24.944;2023-04-01T03:45:04;13.40;;;10.70;;
7375;SDS011;3728;42.266;24.944;2023-04-01T03:47:32;16.33;;;9.93;;
7375;SDS011;3728;42.266;24.944;2023-04-01T03:50:00;10.80;;;8.93;;
7375;SDS011;3728;42.266;24.944;2023-04-01T03:52:28;14.67;;;9.80;;
7375;SDS011;3728;42.266;24.944;2023-04-01T03:54:56;22.30;;;11.83;;
7375;SDS011;3728;42.266;24.944;2023-04-01T03:57:23;25.90;;;11.43;;
7375;SDS011;3728;42.266;24.944;2023-04-01T03:59:54;27.73;;;11.80;;
7375;SDS011;3728;42.266;24.944;2023-04-01T04:02:22;19.60;;;14.10;;
7375;SDS011;3728;42.266;24.944;2023-04-01T04:04:50;32.37;;;20.10;;
7375;SDS011;3728;42.266;24.944;2023-04-01T04:07:17;32.23;;;19.93;;
7375;SDS011;3728;42.266;24.944;2023-04-01T04:09:58;25.50;;;17.03;;
7375;SDS011;3728;42.266;24.944;2023-04-01T04:12:26;28.53;;;14.23;;
7375;SDS011;3728;42.266;24.944;2023-04-01T04:14:53;21.30;;;12.67;;
7375;SDS011;3728;42.266;24.944;2023-04-01T04:17:21;18.77;;;11.77;;
7375;SDS011;3728;42.266;24.944;2023-04-01T04:19:48;19.67;;;13.03;;
7375;SDS011;3728;42.266;24.944;2023-04-01T04:22:17;21.20;;;14.60;;
7375;SDS011;3728;42.266;24.944;2023-04-01T04:24:44;32.90;;;21.53;;
7375;SDS011;3728;42.266;24.944;2023-04-01T04:27:12;25.67;;;15.60;;
7375;SDS011;3728;42.266;24.944;2023-04-01T04:29:52;20.93;;;13.03;;
7375;SDS011;3728;42.266;24.944;2023-04-01T04:32:21;20.87;;;11.83;;
7375;SDS011;3728;42.266;24.944;2023-04-01T04:34:48;19.87;;;12.00;;
7375;SDS011;3728;42.266;24.944;2023-04-01T04:37:17;17.30;;;11.93;;
7375;SDS011;3728;42.266;24.944;2023-04-01T04:39:45;16.63;;;10.00;;
7375;SDS011;3728;42.266;24.944;2023-04-01T04:42:15;15.53;;;11.53;;
7375;SDS011;3728;42.266;24.944;2023-04-01T04:44:43;20.90;;;10.43;;
7375;SDS011;3728;42.266;24.944;2023-04-01T04:47:11;11.07;;;7.13;;
7375;SDS011;3728;42.266;24.944;2023-04-01T04:49:39;7.70;;;5.93;;
7375;SDS011;3728;42.266;24.944;2023-04-01T04:52:08;61.97;;;24.53;;
7375;SDS011;3728;42.266;24.944;2023-04-01T04:54:39;20.20;;;12.20;;
7375;SDS011;3728;42.266;24.944;2023-04-01T04:57:06;18.80;;;9.17;;
7375;SDS011;3728;42.266;24.944;2023-04-01T04:59:42;21.70;;;10.70;;
7375;SDS011;3728;42.266;24.944;2023-04-01T05:02:23;14.03;;;7.73;;
7375;SDS011;3728;42.266;24.944;2023-04-01T05:04:52;12.47;;;7.00;;
7375;SDS011;3728;42.266;24.944;2023-04-01T05:07:20;14.97;;;8.07;;
7375;SDS011;3728;42.266;24.944;2023-04-01T05:09:48;13.07;;;8.63;;
7375;SDS011;3728;42.266;24.944;2023-04-01T05:12:16;17.87;;;9.07;;
7375;SDS011;3728;42.266;24.944;2023-04-01T05:14:58;16.77;;;9.10;;
7375;SDS011;3728;42.266;24.944;2023-04-01T05:17:25;26.40;;;12.93;;
7375;SDS011;3728;42.266;24.944;2023-04-01T05:19:53;30.80;;;11.97;;
7375;SDS011;3728;42.266;24.944;2023-04-01T05:22:24;25.23;;;11.93;;
7375;SDS011;3728;42.266;24.944;2023-04-01T05:24:51;24.33;;;11.33;;
7375;SDS011;3728;42.266;24.944;2023-04-01T05:27:19;21.40;;;10.83;;
7375;SDS011;3728;42.266;24.944;2023-04-01T05:29:47;25.87;;;11.03;;
7375;SDS011;3728;42.266;24.944;2023-04-01T05:32:35;18.93;;;12.03;;
7375;SDS011;3728;42.266;24.944;2023-04-01T05:35:03;17.87;;;11.50;;
7375;SDS011;3728;42.266;24.944;2023-04-01T05:37:33;17.87;;;9.20;;
7375;SDS011;3728;42.266;24.944;2023-04-01T05:40:03;18.27;;;9.33;;
7375;SDS011;3728;42.266;24.944;2023-04-01T05:42:32;14.30;;;9.17;;
7375;SDS011;3728;42.266;24.944;2023-04-01T05:45:03;22.33;;;11.50;;
7375;SDS011;3728;42.266;24.944;2023-04-01T05:47:50;22.27;;;13.50;;
7375;SDS011;3728;42.266;24.944;2023-04-01T05:50:18;15.80;;;9.90;;
7375;SDS011;3728;42.266;24.944;2023-04-01T05:52:47;15.57;;;10.13;;
7375;SDS011;3728;42.266;24.944;2023-04-01T05:55:16;17.40;;;10.10;;
7375;SDS011;3728;42.266;24.944;2023-04-01T05:57:45;15.97;;;10.17;;
7375;SDS011;3728;42.266;24.944;2023-04-01T06:00:16;13.70;;;8.67;;
7375;SDS011;3728;42.266;24.944;2023-04-01T06:02:47;15.23;;;6.70;;
7375;SDS011;3728;42.266;24.944;2023-04-01T06:05:22;8.53;;;6.27;;
7375;SDS011;3728;42.266;24.944;2023-04-01T06:08:00;10.80;;;7.20;;
7375;SDS011;3728;42.266;24.944;2023-04-01T06:16:51;22.77;;;9.93;;
7375;SDS011;3728;42.266;24.944;2023-04-01T06:42:31;10.37;;;5.93;;
7375;SDS011;3728;42.266;24.944;2023-04-01T06:56:15;10.00;;;4.43;;
7375;SDS011;3728;42.266;24.944;2023-04-01T06:59:15;12.27;;;5.27;;
7375;SDS011;3728;42.266;24.944;2023-04-01T07:02:04;8.60;;;4.97;;
7375;SDS011;3728;42.266;24.944;2023-04-01T07:05:22;9.93;;;4.80;;
7375;SDS011;3728;42.266;24.944;2023-04-01T07:07:52;9.37;;;5.23;;
7375;SDS011;3728;42.266;24.944;2023-04-01T07:10:35;11.07;;;7.23;;
7375;SDS011;3728;42.266;24.944;2023-04-01T07:14:13;7.67;;;5.97;;
7375;SDS011;3728;42.266;24.944;2023-04-01T07:16:50;12.67;;;7.40;;
7375;SDS011;3728;42.266;24.944;2023-04-01T07:25:42;12.83;;;6.63;;
7375;SDS011;3728;42.266;24.944;2023-04-01T07:28:37;10.63;;;5.90;;
7375;SDS011;3728;42.266;24.944;2023-04-01T07:37:34;13.17;;;9.80;;
7375;SDS011;3728;42.266;24.944;2023-04-01T07:46:59;7.40;;;5.80;;
7375;SDS011;3728;42.266;24.944;2023-04-01T07:58:45;9.40;;;3.80;;
7375;SDS011;3728;42.266;24.944;2023-04-01T08:10:36;4.67;;;3.17;;
7375;SDS011;3728;42.266;24.944;2023-04-01T08:17:01;5.13;;;2.67;;
7375;SDS011;3728;42.266;24.944;2023-04-01T08:19:50;5.00;;;2.60;;
7375;SDS011;3728;42.266;24.944;2023-04-01T08:23:04;7.17;;;3.20;;
7375;SDS011;3728;42.266;24.944;2023-04-01T08:25:56;7.53;;;3.00;;
7375;SDS011;3728;42.266;24.944;2023-04-01T08:28:37;7.23;;;3.03;;
7375;SDS011;3728;42.266;24.944;2023-04-01T08:31:38;4.53;;;2.90;;
7375;SDS011;3728;42.266;24.944;2023-04-01T08:34:20;15.80;;;3.60;;
7375;SDS011;3728;42.266;24.944;2023-04-01T08:37:00;4.47;;;2.80;;
7375;SDS011;3728;42.266;24.944;2023-04-01T08:39:58;4.30;;;2.90;;
7375;SDS011;3728;42.266;24.944;2023-04-01T08:43:16;12.23;;;3.73;;
7375;SDS011;3728;42.266;24.944;2023-04-01T09:13:59;6.23;;;2.87;;
7375;SDS011;3728;42.266;24.944;2023-04-01T09:29:19;27.10;;;16.83;;
7375;SDS011;3728;42.266;24.944;2023-04-01T09:38:47;11.63;;;3.30;;
7375;SDS011;3728;42.266;24.944;2023-04-01T09:45:24;5.80;;;2.80;;
7375;SDS011;3728;42.266;24.944;2023-04-01T10:06:14;20.80;;;3.57;;
7375;SDS011;3728;42.266;24.944;2023-04-01T10:22:23;14.80;;;3.77;;
7375;SDS011;3728;42.266;24.944;2023-04-01T10:38:39;7.50;;;4.13;;
7375;SDS011;3728;42.266;24.944;2023-04-01T10:48:40;6.43;;;3.10;;
7375;SDS011;3728;42.266;24.944;2023-04-01T11:02:46;22.83;;;10.33;;
7375;SDS011;3728;42.266;24.944;2023-04-01T11:33:02;7.00;;;2.70;;
7375;SDS011;3728;42.266;24.944;2023-04-01T11:48:26;9.98;;;2.63;;
7375;SDS011;3728;42.266;24.944;2023-04-01T12:00:48;8.80;;;2.58;;
7375;SDS011;3728;42.266;24.944;2023-04-01T12:26:18;7.22;;;2.78;;
7375;SDS011;3728;42.266;24.944;2023-04-01T12:29:23;6.43;;;2.50;;
7375;SDS011;3728;42.266;24.944;2023-04-01T12:32:41;5.00;;;2.00;;
7375;SDS011;3728;42.266;24.944;2023-04-01T13:06:42;11.30;;;4.13;;
7375;SDS011;3728;42.266;24.944;2023-04-01T13:12:56;11.80;;;4.00;;
7375;SDS011;3728;42.266;24.944;2023-04-01T13:15:58;8.60;;;3.80;;
7375;SDS011;3728;42.266;24.944;2023-04-01T13:19:09;8.63;;;3.60;;
7375;SDS011;3728;42.266;24.944;2023-04-01T13:22:24;9.67;;;3.33;;
7375;SDS011;3728;42.266;24.944;2023-04-01T13:46:03;75.40;;;7.90;;
7375;SDS011;3728;42.266;24.944;2023-04-01T14:03:28;26.70;;;4.40;;
7375;SDS011;3728;42.266;24.944;2023-04-01T14:09:53;11.30;;;3.57;;
7375;SDS011;3728;42.266;24.944;2023-04-01T14:12:49;6.43;;;3.00;;
7375;SDS011;3728;42.266;24.944;2023-04-01T14:15:45;7.50;;;3.20;;
7375;SDS011;3728;42.266;24.944;2023-04-01T14:18:51;5.77;;;2.77;;
7375;SDS011;3728;42.266;24.944;2023-04-01T14:21:40;4.00;;;2.83;;
7375;SDS011;3728;42.266;24.944;2023-04-01T14:30:31;5.93;;;3.63;;
7375;SDS011;3728;42.266;24.944;2023-04-01T14:36:48;7.10;;;3.90;;
7375;SDS011;3728;42.266;24.944;2023-04-01T14:49:00;3.83;;;3.10;;
7375;SDS011;3728;42.266;24.944;2023-04-01T14:51:41;4.03;;;3.20;;
7375;SDS011;3728;42.266;24.944;2023-04-01T14:56:50;5.47;;;3.37;;
7375;SDS011;3728;42.266;24.944;2023-04-01T14:59:39;4.63;;;2.60;;
7375;SDS011;3728;42.266;24.944;2023-04-01T15:08:44;4.10;;;2.87;;
7375;SDS011;3728;42.266;24.944;2023-04-01T15:14:18;1.40;;;1.30;;
7375;SDS011;3728;42.266;24.944;2023-04-01T15:40:57;6.33;;;3.13;;
7375;SDS011;3728;42.266;24.944;2023-04-01T15:43:44;9.37;;;3.63;;
7375;SDS011;3728;42.266;24.944;2023-04-01T15:54:47;7.13;;;3.63;;
7375;SDS011;3728;42.266;24.944;2023-04-01T16:00:20;5.83;;;4.13;;
7375;SDS011;3728;42.266;24.944;2023-04-01T16:17:49;6.50;;;3.27;;
7375;SDS011;3728;42.266;24.944;2023-04-01T16:20:24;5.23;;;2.63;;
7375;SDS011;3728;42.266;24.944;2023-04-01T16:32:51;4.10;;;3.23;;
7375;SDS011;3728;42.266;24.944;2023-04-01T16:35:29;5.23;;;3.13;;
7375;SDS011;3728;42.266;24.944;2023-04-01T16:43:52;7.07;;;4.57;;
7375;SDS011;3728;42.266;24.944;2023-04-01T16:46:52;6.17;;;4.57;;
7375;SDS011;3728;42.266;24.944;2023-04-01T16:55:51;11.50;;;6.03;;
7375;SDS011;3728;42.266;24.944;2023-04-01T17:15:51;9.20;;;5.30;;
7375;SDS011;3728;42.266;24.944;2023-04-01T17:18:53;8.27;;;4.17;;
7375;SDS011;3728;42.266;24.944;2023-04-01T17:34:31;32.00;;;16.53;;
7375;SDS011;3728;42.266;24.944;2023-04-01T17:43:33;7.60;;;4.47;;
7375;SDS011;3728;42.266;24.944;2023-04-01T17:53:04;11.97;;;5.23;;
7375;SDS011;3728;42.266;24.944;2023-04-01T18:11:24;2.93;;;2.10;;
7375;SDS011;3728;42.266;24.944;2023-04-01T18:17:27;1.93;;;1.50;;
7375;SDS011;3728;42.266;24.944;2023-04-01T18:26:28;1.53;;;1.43;;
7375;SDS011;3728;42.266;24.944;2023-04-01T18:29:08;2.23;;;1.40;;
7375;SDS011;3728;42.266;24.944;2023-04-01T18:31:51;2.70;;;2.20;;
7375;SDS011;3728;42.266;24.944;2023-04-01T18:34:56;2.77;;;2.37;;
7375;SDS011;3728;42.266;24.944;2023-04-01T18:40:32;1.63;;;1.20;;
7375;SDS011;3728;42.266;24.944;2023-04-01T18:43:16;1.90;;;1.13;;
7375;SDS011;3728;42.266;24.944;2023-04-01T18:46:36;1.53;;;1.20;;
7375;SDS011;3728;42.266;24.944;2023-04-01T18:53:24;1.63;;;1.30;;
7375;SDS011;3728;42.266;24.944;2023-04-01T18:56:32;1.83;;;1.17;;
7375;SDS011;3728;42.266;24.944;2023-04-01T18:59:06;1.07;;;1.00;;
7375;SDS011;3728;42.266;24.944;2023-04-01T19:05:02;1.37;;;1.27;;
7375;SDS011;3728;42.266;24.944;2023-04-01T19:16:09;16.27;;;8.07;;
7375;SDS011;3728;42.266;24.944;2023-04-01T19:21:33;3.53;;;2.63;;
7375;SDS011;3728;42.266;24.944;2023-04-01T19:26:52;1.70;;;1.60;;
7375;SDS011;3728;42.266;24.944;2023-04-01T19:33:07;1.83;;;1.40;;
7375;SDS011;3728;42.266;24.944;2023-04-01T19:36:07;1.50;;;1.40;;
7375;SDS011;3728;42.266;24.944;2023-04-01T19:39:00;3.37;;;1.73;;
7375;SDS011;3728;42.266;24.944;2023-04-01T19:53:25;7.33;;;5.40;;
7375;SDS011;3728;42.266;24.944;2023-04-01T19:56:18;3.07;;;2.30;;
7375;SDS011;3728;42.266;24.944;2023-04-01T20:04:48;1.70;;;1.60;;
7375;SDS011;3728;42.266;24.944;2023-04-01T20:07:31;2.17;;;1.40;;
7375;SDS011;3728;42.266;24.944;2023-04-01T20:10:22;1.53;;;1.43;;
7375;SDS011;3728;42.266;24.944;2023-04-01T20:13:24;3.23;;;1.80;;
7375;SDS011;3728;42.266;24.944;2023-04-01T20:16:36;1.50;;;1.40;;
7375;SDS011;3728;42.266;24.944;2023-04-01T20:19:46;1.20;;;1.20;;
7375;SDS011;3728;42.266;24.944;2023-04-01T20:25:26;1.60;;;1.50;;
7375;SDS011;3728;42.266;24.944;2023-04-01T20:28:20;3.57;;;1.77;;
7375;SDS011;3728;42.266;24.944;2023-04-01T20:46:18;1.40;;;1.30;;
7375;SDS011;3728;42.266;24.944;2023-04-01T21:03:12;1.10;;;1.10;;
7375;SDS011;3728;42.266;24.944;2023-04-01T21:09:10;0.93;;;0.90;;
7375;SDS011;3728;42.266;24.944;2023-04-01T21:15:19;1.20;;;1.10;;
7375;SDS011;3728;42.266;24.944;2023-04-01T21:45:55;1.00;;;1.00;;
7375;SDS011;3728;42.266;24.944;2023-04-01T21:57:21;1.07;;;1.07;;
7375;SDS011;3728;42.266;24.944;2023-04-01T22:17:58;1.40;;;1.30;;
7375;SDS011;3728;42.266;24.944;2023-04-01T22:20:48;1.67;;;1.57;;
7375;SDS011;3728;42.266;24.944;2023-04-01T22:23:26;1.60;;;1.50;;
7375;SDS011;3728;42.266;24.944;2023-04-01T22:26:14;1.40;;;1.30;;
7375;SDS011;3728;42.266;24.944;2023-04-01T22:28:55;1.57;;;1.47;;
7375;SDS011;3728;42.266;24.944;2023-04-01T22:38:10;1.50;;;1.23;;
7375;SDS011;3728;42.266;24.944;2023-04-01T22:43:40;0.90;;;0.90;;
7375;SDS011;3728;42.266;24.944;2023-04-01T22:52:05;1.47;;;1.37;;
7375;SDS011;3728;42.266;24.944;2023-04-01T22:54:48;1.53;;;1.40;;
7375;SDS011;3728;42.266;24.944;2023-04-01T22:57:50;1.30;;;1.30;;
7375;SDS011;3728;42.266;24.944;2023-04-01T23:03:32;1.67;;;1.57;;
7375;SDS011;3728;42.266;24.944;2023-04-01T23:06:15;1.60;;;1.50;;
7375;SDS011;3728;42.266;24.944;2023-04-01T23:08:55;1.57;;;1.47;;
7375;SDS011;3728;42.266;24.944;2023-04-01T23:14:34;1.60;;;1.40;;
7375;SDS011;3728;42.266;24.944;2023-04-01T23:29:23;1.77;;;1.20;;
7375;SDS011;3728;42.266;24.944;2023-04-01T23:34:30;1.27;;;1.27;;
7375;SDS011;3728;42.266;24.944;2023-04-01T23:37:05;1.53;;;1.43;;
7375;SDS011;3728;42.266;24.944;2023-04-01T23:39:46;1.13;;;1.10;;
7375;SDS011;3728;42.266;24.944;2023-04-01T23:42:32;1.20;;;1.20;;
7375;SDS011;3728;42.266;24.944;2023-04-01T23:45:16;1.43;;;1.20;;
7375;SDS011;3728;42.266;24.944;2023-04-01T23:47:47;1.20;;;1.10;;
7375;SDS011;3728;42.266;24.944;2023-04-01T23:50:18;1.20;;;1.10;;
7375;SDS011;3728;42.266;24.944;2023-04-01T23:55:51;1.30;;;1.30;;
7375;SDS011;3728;42.266;24.944;2023-04-01T23:58:26;1.30;;;1.20;;
